KEBS/EBS METAR and TAF weather

Enter ICAO airport designator
Station Type Date Time Source
KEBS METAR 2019/02/23 16:35 UTC NOAA

KEBS 231635Z AUTO 06006KT 1/2SM FG OVC003 00/00 A2979 RMK AO2


Station Type Date Time Source
KEBS Decoded METAR 2019/02/23 16:35 UTC NOAA

Webster City, IA, United States (KEBS) 42-26N 093-52W
Feb 23, 2019 - 11:35 AM EST / 2019.02.23 1635 UTC
Wind: from the ENE (060 degrees) at 7 MPH (6 KT):0
Visibility: 1/2 mile(s):0
Sky conditions: overcast
Weather: fog
Temperature: 32 F (0 C)
Windchill: 24 F (-4 C):1
Dew Point: 32 F (0 C)
Relative Humidity: 100%
Pressure (altimeter): 29.79 in. Hg (1008 hPa)
ob: KEBS 231635Z AUTO 06006KT 1/2SM FG OVC003 00/00 A2979 RMK AO2
cycle: 16

Station Type Date Time Source
KEBS TAF UTC NOAA

Error!


Example: see airport list